Time;durP1;ratioP1;P1;durP2;ratioP2;P2;SDS_P1;SDS_P2;PMS_P1;PMS_P2;Temp;Humidity;BMP_temperature;BMP_pressure;BME280_temperature;BME280_humidity;BME280_pressure;Samples;Min_cycle;Max_cycle;Signal;HPM_P1;HPM_P2
2021/07/22 00:00:22;;;;;;;6.78;4.47;;;17.70;69.70;;;;;;5092049;28;20031;-67
2021/07/22 00:02:49;;;;;;;10.70;5.47;;;17.60;69.70;;;;;;5091957;28;20024;-67
2021/07/22 00:05:15;;;;;;;10.57;5.20;;;17.70;70.00;;;;;;5090767;28;20077;-67
2021/07/22 00:07:40;;;;;;;7.05;4.60;;;17.60;70.10;;;;;;5091669;28;20040;-67
2021/07/22 00:10:06;;;;;;;7.15;5.05;;;17.60;70.30;;;;;;5091835;28;20723;-67
2021/07/22 00:12:32;;;;;;;10.02;6.10;;;17.60;70.40;;;;;;5091149;28;20047;-67
2021/07/22 00:14:58;;;;;;;7.13;5.47;;;17.50;70.50;;;;;;5090534;28;20391;-67
2021/07/22 00:17:23;;;;;;;10.85;5.65;;;17.50;70.60;;;;;;5072911;28;20468;-67
2021/07/22 00:19:49;;;;;;;7.90;5.68;;;17.50;70.70;;;;;;5082943;28;20023;-67
2021/07/22 00:22:15;;;;;;;8.27;5.78;;;17.50;70.80;;;;;;5091442;28;20040;-67
2021/07/22 00:24:40;;;;;;;9.90;5.53;;;17.50;70.90;;;;;;5090453;28;20024;-67
2021/07/22 00:27:06;;;;;;;10.75;6.32;;;17.50;71.00;;;;;;5091157;28;20024;-67
2021/07/22 00:29:35;;;;;;;7.60;5.88;;;17.50;71.00;;;;;;5088467;28;20028;-67
2021/07/22 00:32:01;;;;;;;9.05;5.68;;;17.40;71.20;;;;;;5091142;28;20031;-67
2021/07/22 00:34:27;;;;;;;9.32;5.10;;;17.40;71.10;;;;;;5091019;28;20028;-67
2021/07/22 00:36:52;;;;;;;10.95;5.68;;;17.30;71.80;;;;;;5090380;28;20038;-67
2021/07/22 00:39:18;;;;;;;7.43;5.55;;;17.30;71.50;;;;;;5091181;28;20059;-67
2021/07/22 00:41:44;;;;;;;6.05;5.15;;;17.30;71.80;;;;;;5090886;28;20498;-67
2021/07/22 00:44:10;;;;;;;9.65;5.75;;;17.20;71.80;;;;;;5090815;28;20106;-67
2021/07/22 00:46:35;;;;;;;7.63;5.20;;;17.20;72.10;;;;;;5090067;28;20480;-67
2021/07/22 00:49:01;;;;;;;6.57;4.95;;;17.20;72.10;;;;;;5090904;28;20076;-67
2021/07/22 00:51:26;;;;;;;6.75;5.38;;;17.10;72.10;;;;;;5091066;28;20066;-67
2021/07/22 00:53:52;;;;;;;7.25;5.45;;;17.20;72.30;;;;;;5091036;28;20024;-67
2021/07/22 00:56:17;;;;;;;7.43;5.38;;;17.10;72.40;;;;;;5089791;28;20031;-67
2021/07/22 00:58:43;;;;;;;8.88;5.28;;;17.10;72.40;;;;;;5090882;28;20425;-67
2021/07/22 01:01:09;;;;;;;7.55;5.20;;;17.00;72.50;;;;;;5090961;28;20138;-67
2021/07/22 01:03:39;;;;;;;8.25;5.50;;;17.00;72.70;;;;;;5090972;28;20020;-68
2021/07/22 01:06:04;;;;;;;9.15;5.53;;;16.90;73.10;;;;;;5089596;28;20020;-67
2021/07/22 01:08:30;;;;;;;9.48;5.47;;;16.80;73.10;;;;;;5090715;28;20089;-67
2021/07/22 01:10:55;;;;;;;9.40;5.28;;;16.80;73.40;;;;;;5090331;28;20043;-68
2021/07/22 01:13:21;;;;;;;6.68;4.93;;;16.70;73.60;;;;;;5090501;28;20372;-67
2021/07/22 01:15:46;;;;;;;8.15;5.40;;;16.70;73.80;;;;;;5089639;28;20422;-67
2021/07/22 01:18:12;;;;;;;10.38;6.03;;;16.60;73.90;;;;;;5090205;28;20024;-67
2021/07/22 01:20:38;;;;;;;6.63;5.32;;;16.60;74.10;;;;;;5081910;28;20526;-67
2021/07/22 01:23:03;;;;;;;7.47;5.32;;;16.60;74.20;;;;;;5090370;28;20027;-67
2021/07/22 01:25:29;;;;;;;6.93;5.05;;;16.50;74.30;;;;;;5089645;28;20095;-67
2021/07/22 01:27:57;;;;;;;8.45;5.50;;;16.50;74.40;;;;;;5090229;28;20034;-67
2021/07/22 01:30:23;;;;;;;14.38;5.25;;;16.50;74.70;;;;;;5087298;28;20443;-67
2021/07/22 01:32:49;;;;;;;9.02;5.57;;;16.50;74.60;;;;;;5090564;28;20028;-67
2021/07/22 01:35:15;;;;;;;7.28;5.68;;;16.50;74.70;;;;;;5089120;28;20090;-67
2021/07/22 01:37:41;;;;;;;9.25;5.80;;;16.50;74.80;;;;;;5090290;28;20824;-67
2021/07/22 01:40:10;;;;;;;8.05;5.63;;;16.40;75.00;;;;;;5090508;28;20041;-67
2021/07/22 01:42:36;;;;;;;7.75;5.60;;;16.40;75.20;;;;;;5071893;28;20453;-67
2021/07/22 01:45:03;;;;;;;8.80;5.43;;;16.40;75.20;;;;;;5089233;28;20028;-68
2021/07/22 01:47:29;;;;;;;7.10;5.43;;;16.30;75.40;;;;;;5090376;28;20430;-67
2021/07/22 01:49:54;;;;;;;11.85;5.75;;;16.30;75.50;;;;;;5090128;28;20024;-67
2021/07/22 01:52:20;;;;;;;9.05;5.97;;;16.30;75.60;;;;;;5090378;28;20020;-67
2021/07/22 01:54:46;;;;;;;8.98;5.95;;;16.30;75.60;;;;;;5089981;28;20028;-68
2021/07/22 01:57:11;;;;;;;7.35;5.75;;;16.30;75.60;;;;;;5075862;28;20032;-67
2021/07/22 01:59:37;;;;;;;9.10;5.90;;;16.20;75.60;;;;;;5094459;28;20191;-67
2021/07/22 02:02:06;;;;;;;8.85;5.70;;;16.20;75.70;;;;;;5094505;28;20035;-68
2021/07/22 02:04:33;;;;;;;10.07;5.60;;;16.20;76.10;;;;;;5093524;28;20503;-67
2021/07/22 02:06:59;;;;;;;10.52;5.63;;;16.20;76.00;;;;;;5093855;28;20028;-67
2021/07/22 02:09:25;;;;;;;9.52;5.68;;;16.10;76.00;;;;;;5094351;28;20021;-67
2021/07/22 02:11:55;;;;;;;6.55;5.63;;;16.10;76.10;;;;;;5093611;28;20483;-68
2021/07/22 02:14:22;;;;;;;10.95;5.72;;;16.10;76.30;;;;;;5093877;28;20062;-67
2021/07/22 02:16:48;;;;;;;8.38;5.68;;;16.10;76.30;;;;;;5074689;28;20081;-67
2021/07/22 02:19:14;;;;;;;9.27;5.82;;;16.10;76.30;;;;;;5091154;28;20016;-67
2021/07/22 02:21:40;;;;;;;7.07;5.68;;;16.10;76.30;;;;;;5093419;28;20095;-67
2021/07/22 02:24:07;;;;;;;9.65;6.15;;;16.10;76.40;;;;;;5093919;28;20036;-67
2021/07/22 02:26:33;;;;;;;9.85;6.78;;;16.20;76.50;;;;;;5092696;28;20388;-67
2021/07/22 02:29:03;;;;;;;11.77;6.75;;;16.10;76.30;;;;;;5075291;28;20031;-67
2021/07/22 02:31:28;;;;;;;11.02;6.30;;;16.10;76.50;;;;;;5093814;28;20024;-68
2021/07/22 02:33:54;;;;;;;11.63;5.70;;;16.10;76.50;;;;;;5093712;28;20032;-67
2021/07/22 02:36:19;;;;;;;10.85;6.30;;;16.10;76.50;;;;;;5092459;28;20584;-67
2021/07/22 02:38:45;;;;;;;9.05;6.65;;;16.00;76.60;;;;;;5093564;28;20028;-68
2021/07/22 02:41:11;;;;;;;8.82;6.30;;;15.90;76.70;;;;;;5101431;28;20020;-67
2021/07/22 02:43:37;;;;;;;15.60;5.97;;;15.90;76.90;;;;;;5093370;28;20024;-68
2021/07/22 02:46:10;;;;;;;9.50;5.88;;;15.90;77.10;;;;;;5092397;28;20028;-67
2021/07/22 02:48:36;;;;;;;7.43;5.70;;;15.90;77.50;;;;;;5093253;28;20016;-67
2021/07/22 02:51:06;;;;;;;11.60;6.22;;;15.80;77.20;;;;;;5093543;28;20024;-67
2021/07/22 02:53:34;;;;;;;8.40;6.18;;;15.80;77.50;;;;;;5093283;28;20496;-67
2021/07/22 02:56:01;;;;;;;9.77;6.35;;;15.80;77.40;;;;;;5091992;28;20416;-67
2021/07/22 02:58:27;;;;;;;11.57;6.50;;;15.80;77.50;;;;;;5093186;28;20020;-67
2021/07/22 03:00:53;;;;;;;9.73;6.53;;;15.80;77.40;;;;;;5093321;28;20077;-67
2021/07/22 03:03:19;;;;;;;11.25;6.72;;;15.80;77.50;;;;;;5093297;28;20414;-67
2021/07/22 03:05:44;;;;;;;7.85;5.95;;;15.70;77.70;;;;;;5091826;28;20031;-67
2021/07/22 03:08:10;;;;;;;9.80;6.85;;;15.70;77.80;;;;;;5093197;28;20039;-67
2021/07/22 03:10:36;;;;;;;13.13;7.30;;;15.70;77.80;;;;;;5093034;28;20368;-67
2021/07/22 03:13:03;;;;;;;11.45;7.32;;;15.70;77.80;;;;;;5092749;28;20031;-67
2021/07/22 03:15:29;;;;;;;11.02;6.97;;;15.70;77.80;;;;;;5091594;28;20031;-67
2021/07/22 03:17:55;;;;;;;10.40;6.85;;;15.60;77.80;;;;;;5092769;28;20043;-67
2021/07/22 03:20:21;;;;;;;9.68;6.40;;;15.60;78.10;;;;;;5092025;28;20471;-67
2021/07/22 03:22:46;;;;;;;9.60;6.50;;;15.60;78.30;;;;;;5092682;28;20020;-67
2021/07/22 03:25:12;;;;;;;11.73;6.60;;;15.50;78.30;;;;;;5091708;28;20039;-68
2021/07/22 03:27:38;;;;;;;8.75;6.60;;;15.50;78.40;;;;;;5092462;28;20054;-67
2021/07/22 03:30:04;;;;;;;11.10;7.30;;;15.50;78.40;;;;;;5092706;28;20036;-67
2021/07/22 03:32:30;;;;;;;12.43;6.85;;;15.50;78.60;;;;;;5092804;28;20028;-67
2021/07/22 03:34:55;;;;;;;9.60;6.90;;;15.40;78.60;;;;;;5091449;28;20134;-67
2021/07/22 03:37:21;;;;;;;8.98;6.38;;;15.50;78.80;;;;;;5092544;28;20051;-67
2021/07/22 03:39:46;;;;;;;11.50;6.75;;;15.50;79.30;;;;;;5092663;28;20681;-67
2021/07/22 03:42:12;;;;;;;12.77;7.15;;;15.40;78.70;;;;;;5091958;28;20087;-67
2021/07/22 03:44:38;;;;;;;11.63;7.18;;;15.40;78.80;;;;;;5091169;28;20024;-67
2021/07/22 03:47:04;;;;;;;12.05;7.60;;;15.30;79.00;;;;;;5092403;28;20020;-67
2021/07/22 03:49:30;;;;;;;13.05;7.70;;;15.30;79.10;;;;;;5092552;28;20027;-67
2021/07/22 03:51:56;;;;;;;13.10;7.82;;;15.30;79.20;;;;;;5074247;28;20053;-67
2021/07/22 03:54:22;;;;;;;10.48;7.43;;;15.20;79.80;;;;;;5092229;28;20024;-67
2021/07/22 03:56:48;;;;;;;9.75;7.25;;;15.20;79.40;;;;;;5090902;28;20012;-67
2021/07/22 03:59:15;;;;;;;13.63;7.28;;;15.20;79.60;;;;;;5092226;28;20020;-67
2021/07/22 04:01:41;;;;;;;10.57;7.03;;;15.10;79.70;;;;;;5092268;28;20145;-67
2021/07/22 04:04:06;;;;;;;10.52;7.07;;;15.20;79.80;;;;;;5092215;28;20042;-67
2021/07/22 04:06:35;;;;;;;10.45;6.93;;;15.20;79.90;;;;;;5090929;28;20032;-67
2021/07/22 04:09:02;;;;;;;11.60;7.25;;;15.20;80.10;;;;;;5091913;28;20103;-67
2021/07/22 04:11:27;;;;;;;11.00;6.65;;;15.10;80.00;;;;;;5091465;28;20105;-67
2021/07/22 04:13:53;;;;;;;10.40;6.68;;;15.10;80.20;;;;;;5091478;28;20460;-67
2021/07/22 04:16:18;;;;;;;9.35;6.97;;;15.10;80.30;;;;;;5090782;28;20085;-67
2021/07/22 04:18:44;;;;;;;10.32;7.40;;;15.10;80.40;;;;;;5090708;28;20042;-67
2021/07/22 04:21:09;;;;;;;10.30;6.90;;;15.20;80.50;;;;;;5091452;28;20575;-67
2021/07/22 04:23:35;;;;;;;10.25;6.93;;;15.20;80.50;;;;;;5084644;28;20020;-67
2021/07/22 04:26:00;;;;;;;10.70;6.97;;;15.20;80.50;;;;;;5090236;28;20093;-67
2021/07/22 04:28:26;;;;;;;8.63;6.35;;;15.20;80.70;;;;;;5091300;28;20530;-67
2021/07/22 04:30:52;;;;;;;12.23;6.90;;;15.20;80.80;;;;;;5091713;28;20024;-67
2021/07/22 04:33:19;;;;;;;11.27;6.82;;;15.20;81.50;;;;;;5091539;28;20028;-67
2021/07/22 04:35:44;;;;;;;8.52;6.43;;;15.10;81.10;;;;;;5090410;28;20088;-67
2021/07/22 04:38:10;;;;;;;14.57;6.60;;;15.20;81.30;;;;;;5091527;28;20115;-67
2021/07/22 04:40:35;;;;;;;11.38;6.60;;;15.20;81.40;;;;;;5091269;28;20113;-67
2021/07/22 04:43:01;;;;;;;11.40;6.95;;;15.20;81.40;;;;;;5091107;28;20028;-67
2021/07/22 04:45:27;;;;;;;11.23;6.70;;;15.20;81.50;;;;;;5090327;28;20051;-68
2021/07/22 04:47:52;;;;;;;12.27;6.65;;;15.30;81.50;;;;;;5091310;28;20051;-67
2021/07/22 04:50:18;;;;;;;12.70;7.13;;;15.30;81.50;;;;;;5091429;28;20098;-67
2021/07/22 04:52:43;;;;;;;10.73;6.88;;;15.40;81.70;;;;;;5091474;28;20379;-67
2021/07/22 04:55:09;;;;;;;11.65;7.00;;;15.40;81.60;;;;;;5090154;28;20027;-67
2021/07/22 04:57:35;;;;;;;10.18;6.80;;;15.40;81.50;;;;;;5090788;28;20706;-67
2021/07/22 05:00:01;;;;;;;11.88;6.22;;;15.50;81.60;;;;;;5091232;28;20099;-67
2021/07/22 05:02:26;;;;;;;11.23;7.07;;;15.50;81.60;;;;;;5091129;28;20380;-67
2021/07/22 05:04:52;;;;;;;8.57;6.07;;;15.60;81.70;;;;;;5071751;28;20054;-67
2021/07/22 05:07:17;;;;;;;12.73;6.68;;;15.60;81.80;;;;;;5090858;28;20020;-67
2021/07/22 05:09:43;;;;;;;9.35;6.72;;;15.60;81.90;;;;;;5091091;28;20668;-67
2021/07/22 05:12:09;;;;;;;10.73;6.63;;;15.60;81.90;;;;;;5089467;22;20040;-65
2021/07/22 05:14:35;;;;;;;13.80;7.07;;;15.70;82.00;;;;;;5074948;28;20028;-71
2021/07/22 05:17:01;;;;;;;12.57;6.78;;;15.80;82.10;;;;;;5065475;28;20032;-66
2021/07/22 05:19:27;;;;;;;24.17;7.55;;;15.90;82.10;;;;;;5068525;28;20029;-66
2021/07/22 05:21:52;;;;;;;11.77;7.10;;;15.90;81.90;;;;;;5060497;28;20017;-67
2021/07/22 05:24:18;;;;;;;12.35;7.00;;;16.00;81.90;;;;;;5068201;28;20039;-70
2021/07/22 05:26:44;;;;;;;16.23;7.72;;;16.00;81.90;;;;;;5067857;28;20021;-67
2021/07/22 05:29:09;;;;;;;8.77;6.88;;;16.20;82.00;;;;;;5070970;28;20016;-66
2021/07/22 05:31:40;;;;;;;13.10;6.97;;;16.20;81.80;;;;;;5070995;28;20029;-66
2021/07/22 05:34:05;;;;;;;11.15;7.22;;;16.30;81.90;;;;;;5070968;28;20082;-66
2021/07/22 05:36:31;;;;;;;10.82;7.65;;;16.30;81.80;;;;;;5069851;28;20100;-66
2021/07/22 05:38:56;;;;;;;12.80;7.18;;;16.30;81.80;;;;;;5070750;28;20025;-70
2021/07/22 05:41:22;;;;;;;13.13;6.85;;;16.40;81.80;;;;;;5070391;28;20013;-66
2021/07/22 05:43:48;;;;;;;13.93;7.78;;;16.40;81.80;;;;;;5070725;28;20021;-66
2021/07/22 05:46:18;;;;;;;11.43;7.45;;;16.50;81.70;;;;;;5069976;28;20052;-67
2021/07/22 05:48:44;;;;;;;13.25;7.70;;;16.50;81.70;;;;;;5070707;28;20091;-67
2021/07/22 05:51:09;;;;;;;12.27;7.78;;;16.60;81.50;;;;;;5070665;28;20025;-66
2021/07/22 05:53:35;;;;;;;10.88;7.30;;;16.60;81.50;;;;;;5070620;28;20020;-68
2021/07/22 05:56:01;;;;;;;16.35;7.50;;;16.70;81.60;;;;;;5069338;28;20032;-67
2021/07/22 05:58:26;;;;;;;12.38;7.97;;;16.70;81.50;;;;;;5070657;28;20138;-66
2021/07/22 06:00:52;;;;;;;11.32;7.50;;;16.80;81.30;;;;;;5070689;28;20024;-67
2021/07/22 06:03:18;;;;;;;11.05;7.38;;;16.80;81.20;;;;;;5070683;28;20025;-66
2021/07/22 06:05:44;;;;;;;15.45;7.07;;;16.80;81.20;;;;;;5068205;28;20183;-68
2021/07/22 06:08:09;;;;;;;9.52;7.03;;;16.80;81.20;;;;;;5070446;28;20029;-70
2021/07/22 06:10:35;;;;;;;10.55;7.18;;;16.90;81.20;;;;;;5070227;28;20028;-66
2021/07/22 06:13:00;;;;;;;8.65;6.78;;;17.00;81.20;;;;;;5070392;28;20033;-66
2021/07/22 06:15:26;;;;;;;12.73;8.23;;;17.00;81.30;;;;;;5069304;28;20032;-68
2021/07/22 06:17:52;;;;;;;10.82;7.28;;;17.10;81.40;;;;;;5070261;28;20500;-70
2021/07/22 06:20:17;;;;;;;11.60;6.95;;;17.20;81.30;;;;;;5061733;28;20384;-66
2021/07/22 06:22:46;;;;;;;12.27;7.45;;;17.20;81.40;;;;;;5070198;28;20024;-66
2021/07/22 06:25:13;;;;;;;12.27;6.40;;;17.30;81.30;;;;;;5069219;28;20499;-72
2021/07/22 06:27:40;;;;;;;10.38;7.25;;;17.40;81.30;;;;;;5070178;28;20434;-67
2021/07/22 06:30:06;;;;;;;12.65;7.05;;;17.40;81.40;;;;;;5070438;28;20104;-65
2021/07/22 06:32:32;;;;;;;14.23;8.35;;;17.40;81.90;;;;;;5070355;28;20032;-71
2021/07/22 06:34:57;;;;;;;12.18;7.53;;;17.50;81.30;;;;;;5069203;28;20040;-67
2021/07/22 06:37:23;;;;;;;12.07;7.63;;;17.60;80.90;;;;;;5069902;28;20107;-68
2021/07/22 06:39:48;;;;;;;11.75;7.63;;;17.70;80.70;;;;;;5070270;28;20469;-68
2021/07/22 06:42:14;;;;;;;13.10;6.97;;;17.70;80.50;;;;;;5072713;28;20437;-66
2021/07/22 06:44:39;;;;;;;10.43;7.25;;;17.80;80.30;;;;;;5072755;28;20029;-65
2021/07/22 06:47:05;;;;;;;10.40;6.95;;;18.00;80.20;;;;;;5055708;28;20124;-66
2021/07/22 06:49:31;;;;;;;13.05;7.57;;;18.10;79.90;;;;;;5073846;28;20028;-68
2021/07/22 06:51:58;;;;;;;11.43;7.40;;;18.20;79.70;;;;;;5073554;28;20108;-71
2021/07/22 06:54:24;;;;;;;11.98;6.80;;;18.30;79.60;;;;;;5073609;28;20071;-67
2021/07/22 06:56:49;;;;;;;10.77;6.90;;;18.50;79.40;;;;;;5072327;28;20052;-67
2021/07/22 06:59:15;;;;;;;8.15;6.30;;;18.60;79.00;;;;;;5073676;28;20024;-66
2021/07/22 07:01:41;;;;;;;9.68;6.85;;;18.70;78.80;;;;;;5055604;28;20021;-70
2021/07/22 07:04:06;;;;;;;11.45;7.03;;;18.90;78.70;;;;;;5073554;28;20036;-67
2021/07/22 07:06:36;;;;;;;11.07;7.03;;;19.00;78.70;;;;;;5072274;28;20387;-68
2021/07/22 07:09:04;;;;;;;10.63;6.40;;;19.20;78.40;;;;;;5073340;28;20499;-67
2021/07/22 07:11:30;;;;;;;12.85;7.22;;;19.20;77.90;;;;;;5073003;28;20403;-67
2021/07/22 07:13:55;;;;;;;9.98;6.70;;;19.30;77.80;;;;;;5073219;28;20028;-68
2021/07/22 07:16:21;;;;;;;10.70;6.25;;;19.50;77.50;;;;;;5072313;28;20110;-70
2021/07/22 07:18:47;;;;;;;14.88;8.18;;;19.80;77.00;;;;;;5072941;28;20024;-66
2021/07/22 07:21:15;;;;;;;21.35;14.40;;;20.00;76.90;;;;;;5072601;28;20028;-67
2021/07/22 07:23:41;;;;;;;13.02;9.65;;;20.30;77.10;;;;;;5044714;28;20025;-66
2021/07/22 07:26:12;;;;;;;8.57;6.72;;;20.60;76.50;;;;;;5051746;28;20033;-66
2021/07/22 07:28:38;;;;;;;12.18;6.50;;;21.00;75.70;;;;;;5053044;28;20029;-66
2021/07/22 07:31:04;;;;;;;8.20;6.45;;;21.40;75.10;;;;;;5053037;28;20036;-67
2021/07/22 07:33:30;;;;;;;9.82;7.03;;;21.70;74.10;;;;;;5053023;28;20112;-66
2021/07/22 07:35:56;;;;;;;10.25;6.45;;;22.00;73.30;;;;;;5051664;28;20021;-71
2021/07/22 07:38:22;;;;;;;9.45;6.65;;;22.30;72.50;;;;;;5052713;28;20022;-67
2021/07/22 07:40:48;;;;;;;13.35;6.55;;;22.70;71.60;;;;;;5054564;28;20028;-68
2021/07/22 07:43:18;;;;;;;12.00;6.40;;;23.00;70.40;;;;;;5072396;28;20481;-72
2021/07/22 07:45:44;;;;;;;9.65;5.90;;;23.10;69.70;;;;;;5071722;28;20032;-66
2021/07/22 07:48:10;;;;;;;16.67;7.43;;;23.40;69.10;;;;;;5072496;28;20024;-67
2021/07/22 07:50:36;;;;;;;11.30;5.88;;;23.80;68.30;;;;;;5072662;28;20039;-69
2021/07/22 07:53:12;;;;;;;12.13;5.95;;;24.00;67.40;;;;;;5071613;28;20020;-66
2021/07/22 07:55:40;;;;;;;8.38;5.95;;;24.40;66.50;;;;;;5071383;28;20027;-72
2021/07/22 07:58:05;;;;;;;12.02;5.80;;;24.80;65.70;;;;;;5072377;28;20100;-66
2021/07/22 08:00:31;;;;;;;8.18;5.72;;;25.10;64.80;;;;;;5072573;28;20502;-67
2021/07/22 08:02:58;;;;;;;8.13;5.57;;;25.50;63.80;;;;;;5072206;28;20023;-68
2021/07/22 08:05:25;;;;;;;8.40;5.88;;;25.70;62.80;;;;;;5071226;28;20024;-73
2021/07/22 08:07:50;;;;;;;10.55;6.47;;;25.80;62.10;;;;;;5072157;28;20112;-69
2021/07/22 08:10:16;;;;;;;8.75;6.40;;;26.00;62.00;;;;;;5072217;28;20055;-73
2021/07/22 08:12:42;;;;;;;10.73;7.00;;;26.20;61.90;;;;;;5071705;28;20527;-68
2021/07/22 08:15:09;;;;;;;9.50;5.30;;;26.40;61.90;;;;;;5070993;28;20036;-68
2021/07/22 08:17:35;;;;;;;8.88;6.43;;;26.70;61.10;;;;;;5071625;28;20419;-68
2021/07/22 08:20:03;;;;;;;7.10;5.70;;;26.70;59.80;;;;;;5064752;28;20029;-71
2021/07/22 08:22:29;;;;;;;7.53;5.68;;;26.60;60.40;;;;;;5070488;28;20026;-70
2021/07/22 08:24:54;;;;;;;9.63;5.78;;;26.70;60.30;;;;;;5070957;28;20476;-67
2021/07/22 08:27:27;;;;;;;6.68;5.53;;;27.00;60.50;;;;;;5071626;28;20035;-68
2021/07/22 08:29:53;;;;;;;7.32;5.55;;;27.40;59.20;;;;;;5071722;28;20031;-73
2021/07/22 08:32:20;;;;;;;9.85;5.45;;;27.60;58.90;;;;;;5071765;28;20025;-74
2021/07/22 08:34:45;;;;;;;6.57;5.35;;;28.00;58.70;;;;;;5070485;28;20020;-68
2021/07/22 08:37:11;;;;;;;9.55;5.55;;;28.40;57.70;;;;;;5071385;28;20040;-72
2021/07/22 08:39:41;;;;;;;6.47;4.70;;;28.40;56.50;;;;;;5071664;28;20506;-67
2021/07/22 08:42:08;;;;;;;10.18;5.82;;;28.40;56.40;;;;;;5071074;28;20568;-68
2021/07/22 08:44:38;;;;;;;11.25;5.75;;;28.50;56.40;;;;;;5070473;28;20029;-77
2021/07/22 08:47:05;;;;;;;7.60;4.65;;;28.90;55.60;;;;;;5071230;28;20024;-68
2021/07/22 08:49:35;;;;;;;6.55;4.60;;;29.30;55.30;;;;;;5071231;28;20020;-68
2021/07/22 08:52:05;;;;;;;7.57;4.28;;;29.80;55.20;;;;;;5067141;28;20101;-68
2021/07/22 08:54:30;;;;;;;7.45;4.57;;;30.40;54.30;;;;;;5070642;28;20028;-68
2021/07/22 08:56:56;;;;;;;9.80;4.57;;;30.90;52.70;;;;;;5054167;28;20032;-68
2021/07/22 08:59:25;;;;;;;6.75;4.30;;;31.40;51.80;;;;;;5051930;28;20033;-70
2021/07/22 09:01:54;;;;;;;4.97;3.83;;;32.00;50.70;;;;;;5071199;28;20017;-68
2021/07/22 09:04:20;;;;;;;8.38;3.70;;;32.50;49.40;;;;;;5070671;28;20035;-68
2021/07/22 09:06:45;;;;;;;5.22;3.72;;;32.90;48.00;;;;;;5070281;28;20032;-73
2021/07/22 09:09:16;;;;;;;5.28;3.70;;;33.30;47.20;;;;;;5071262;28;20020;-68
2021/07/22 09:11:59;;;;;;;6.72;4.07;;;33.60;45.90;;;;;;5070531;28;20028;-68
2021/07/22 09:14:29;;;;;;;7.78;3.88;;;33.80;45.40;;;;;;5070808;28;20035;-69
2021/07/22 09:16:56;;;;;;;5.75;3.67;;;34.00;44.60;;;;;;5070486;28;20137;-68
2021/07/22 09:19:40;;;;;;;7.88;3.90;;;34.20;43.80;;;;;;5062121;28;20025;-73
2021/07/22 09:22:08;;;;;;;8.23;3.60;;;34.40;43.90;;;;;;5049248;28;20021;-68
2021/07/22 09:24:51;;;;;;;5.22;3.85;;;34.60;43.30;;;;;;5069636;28;20387;-72
2021/07/22 09:27:39;;;;;;;11.98;4.50;;;34.90;42.80;;;;;;5070398;28;20047;-73
2021/07/22 09:30:11;;;;;;;6.72;3.80;;;35.10;42.70;;;;;;5070914;28;20028;-70
2021/07/22 09:32:38;;;;;;;5.70;3.88;;;35.20;42.10;;;;;;5083714;28;20036;-68
2021/07/22 09:35:15;;;;;;;4.93;3.70;;;35.40;41.50;;;;;;5089868;28;20052;-68
2021/07/22 09:37:46;;;;;;;4.55;3.58;;;35.60;41.00;;;;;;5090888;28;20035;-72
2021/07/22 09:40:15;;;;;;;;;;;35.80;40.70;;;;;;5091259;28;20498;-69
2021/07/22 09:42:50;;;;;;;8.07;3.92;;;35.90;42.70;;;;;;5072832;28;19911;-70
2021/07/22 09:45:23;;;;;;;8.52;3.95;;;36.00;40.90;;;;;;5069556;28;20039;-68
2021/07/22 09:47:49;;;;;;;6.50;3.58;;;36.20;40.20;;;;;;5070578;28;20027;-68
2021/07/22 09:50:19;;;;;;;6.30;3.72;;;36.20;40.50;;;;;;5070649;28;20028;-68
2021/07/22 09:52:46;;;;;;;9.65;3.95;;;36.10;39.80;;;;;;5070548;28;20116;-68
2021/07/22 09:55:25;;;;;;;5.65;3.60;;;36.00;40.00;;;;;;5069393;28;20037;-70
2021/07/22 09:57:56;;;;;;;4.50;3.42;;;35.80;39.60;;;;;;5070250;28;20027;-68
2021/07/22 10:00:24;;;;;;;5.13;3.53;;;35.40;39.60;;;;;;5070610;28;20025;-67
2021/07/22 10:02:51;;;;;;;4.13;3.58;;;35.00;40.40;;;;;;5070571;28;20090;-69
2021/07/22 10:05:21;;;;;;;6.28;2.97;;;34.90;40.60;;;;;;5069417;28;20028;-74
2021/07/22 10:07:48;;;;;;;6.03;3.90;;;34.70;40.80;;;;;;5070505;28;20085;-68
2021/07/22 10:10:15;;;;;;;6.65;3.33;;;34.70;41.10;;;;;;5070575;28;20032;-68
2021/07/22 10:12:48;;;;;;;6.80;4.07;;;34.60;41.00;;;;;;5070101;28;20081;-68
2021/07/22 10:15:15;;;;;;;4.05;3.53;;;34.50;40.70;;;;;;5048199;28;20060;-70
2021/07/22 10:17:43;;;;;;;7.25;3.83;;;34.00;41.00;;;;;;5057852;28;20021;-68
2021/07/22 10:20:09;;;;;;;4.88;3.83;;;33.60;41.00;;;;;;5066099;28;20070;-68
2021/07/22 10:22:35;;;;;;;5.80;4.10;;;33.00;42.40;;;;;;5076917;28;20020;-68
2021/07/22 10:25:01;;;;;;;5.10;3.80;;;32.80;42.00;;;;;;5093416;28;20041;-68
2021/07/22 10:27:26;;;;;;;4.55;3.35;;;32.40;42.40;;;;;;5083453;28;20032;-68
2021/07/22 10:29:53;;;;;;;6.35;3.67;;;32.10;42.70;;;;;;5074122;28;20503;-71
2021/07/22 10:32:21;;;;;;;7.88;3.72;;;31.90;43.00;;;;;;5074154;28;20028;-68
2021/07/22 10:34:48;;;;;;;3.70;3.40;;;31.80;43.20;;;;;;5072807;28;20090;-69
2021/07/22 10:37:18;;;;;;;5.80;3.63;;;31.50;42.40;;;;;;5072635;28;20025;-68
2021/07/22 10:40:09;;;;;;;6.38;3.55;;;31.20;42.50;;;;;;5073994;28;20066;-68
2021/07/22 10:42:49;;;;;;;9.95;4.38;;;31.20;42.40;;;;;;5073514;28;20472;-67
2021/07/22 10:45:17;;;;;;;5.85;4.22;;;31.00;42.50;;;;;;5072714;28;20544;-70
2021/07/22 10:48:03;;;;;;;5.10;3.90;;;30.80;42.10;;;;;;5073633;28;20502;-67
2021/07/22 10:50:38;;;;;;;5.90;4.55;;;30.60;43.70;;;;;;5073603;28;20025;-73
2021/07/22 10:53:04;;;;;;;5.63;4.55;;;30.50;42.50;;;;;;5073707;28;20093;-68
2021/07/22 10:55:42;;;;;;;6.00;4.05;;;30.30;43.00;;;;;;5072349;28;20029;-67
2021/07/22 10:58:29;;;;;;;8.65;4.40;;;30.20;43.70;;;;;;5055348;28;20162;-67
2021/07/22 11:00:56;;;;;;;5.93;4.82;;;30.30;44.30;;;;;;5055727;28;20031;-69
2021/07/22 11:03:36;;;;;;;8.80;4.57;;;30.40;44.40;;;;;;5072241;28;20017;-68
2021/07/22 11:06:05;;;;;;;8.17;5.10;;;30.50;44.30;;;;;;5072476;28;20074;-68
2021/07/22 11:08:33;;;;;;;7.70;4.68;;;30.50;44.10;;;;;;5073343;28;20024;-70
2021/07/22 11:11:02;;;;;;;11.48;4.95;;;30.50;44.30;;;;;;5144244;22;20117;-68
2021/07/22 11:13:46;;;;;;;14.85;5.15;;;30.50;44.10;;;;;;5073901;28;20028;-68
2021/07/22 11:16:26;;;;;;;7.10;3.58;;;30.50;44.20;;;;;;5097998;28;20011;-68
2021/07/22 11:19:00;;;;;;;7.95;4.40;;;30.50;44.50;;;;;;5074852;28;20038;-68
2021/07/22 11:21:27;;;;;;;7.70;4.97;;;30.30;43.80;;;;;;5093406;28;20040;-68
2021/07/22 11:23:59;;;;;;;6.93;4.47;;;29.90;44.10;;;;;;5093454;28;20464;-68
2021/07/22 11:26:29;;;;;;;9.55;4.55;;;29.80;44.30;;;;;;5091942;28;20024;-68
2021/07/22 11:28:55;;;;;;;6.82;4.88;;;29.90;44.20;;;;;;5093331;28;20383;-68
2021/07/22 11:31:21;;;;;;;7.57;4.70;;;29.90;44.90;;;;;;5075022;28;20076;-68
2021/07/22 11:33:47;;;;;;;6.07;4.35;;;29.90;45.20;;;;;;5093361;28;20027;-68
2021/07/22 11:36:22;;;;;;;6.78;4.75;;;30.00;45.90;;;;;;5091920;28;20154;-68
2021/07/22 11:38:53;;;;;;;9.82;4.60;;;30.10;45.80;;;;;;5093143;28;20012;-68
2021/07/22 11:41:20;;;;;;;30.77;18.13;;;30.10;45.10;;;;;;5074550;28;20475;-68
2021/07/22 11:43:51;;;;;;;10.63;7.22;;;30.20;45.70;;;;;;5092746;28;20027;-68
2021/07/22 11:46:33;;;;;;;7.15;4.43;;;30.20;45.40;;;;;;5092041;28;20016;-68
2021/07/22 11:49:07;;;;;;;7.22;5.03;;;30.20;45.70;;;;;;5092887;28;20073;-68
2021/07/22 11:51:33;;;;;;;8.88;4.72;;;30.20;45.70;;;;;;5074933;28;20031;-68
2021/07/22 11:53:59;;;;;;;8.63;4.55;;;30.30;45.40;;;;;;5070940;28;20024;-68
2021/07/22 11:56:33;;;;;;;7.18;4.57;;;30.30;44.80;;;;;;5089659;28;20420;-68
2021/07/22 11:58:59;;;;;;;6.63;4.40;;;30.30;45.30;;;;;;5092610;28;20016;-68
2021/07/22 12:01:25;;;;;;;7.65;5.10;;;30.40;45.40;;;;;;5092580;28;20414;-68
2021/07/22 12:03:51;;;;;;;10.25;5.05;;;30.40;45.60;;;;;;5092470;28;20016;-68
2021/07/22 12:06:24;;;;;;;9.25;5.50;;;30.50;45.80;;;;;;5071267;28;20077;-68
2021/07/22 12:09:06;;;;;;;7.72;4.80;;;30.50;45.60;;;;;;5073194;28;20032;-68
2021/07/22 12:11:50;;;;;;;7.10;5.47;;;30.40;45.70;;;;;;5077723;28;20868;-68
2021/07/22 12:14:25;;;;;;;10.45;5.32;;;30.20;45.30;;;;;;5073110;28;20498;-68
2021/07/22 12:16:53;;;;;;;8.57;4.88;;;30.10;44.90;;;;;;5087129;28;20111;-68
2021/07/22 12:19:26;;;;;;;9.82;5.00;;;29.80;45.50;;;;;;5091529;28;20020;-68
2021/07/22 12:22:18;;;;;;;6.32;4.85;;;29.70;46.00;;;;;;5091883;28;20054;-68
2021/07/22 12:24:44;;;;;;;;;;;29.70;46.20;;;;;;5087449;28;20042;-68
2021/07/22 12:27:28;;;;;;;7.68;4.50;;;29.80;46.50;;;;;;5078669;28;20407;-68
2021/07/22 12:29:54;;;;;;;13.63;5.32;;;29.90;46.40;;;;;;5071197;28;20484;-69
2021/07/22 12:32:20;;;;;;;9.45;5.32;;;30.00;46.70;;;;;;5092081;28;20038;-69
2021/07/22 12:34:45;;;;;;;7.95;5.05;;;29.80;47.20;;;;;;5089742;28;20036;-75
2021/07/22 12:37:11;;;;;;;11.45;5.82;;;29.50;48.20;;;;;;5091294;28;20039;-69
2021/07/22 12:39:37;;;;;;;8.45;5.00;;;29.30;48.00;;;;;;5090906;28;20027;-68
2021/07/22 12:42:11;;;;;;;10.13;5.63;;;29.10;48.90;;;;;;5090931;28;20028;-67
2021/07/22 12:44:43;;;;;;;8.88;5.80;;;29.00;50.10;;;;;;5089613;28;20027;-68